sensor_id;sensor_type;location;lat;lon;timestamp;pressure;altitude;pressure_sealevel;temperature;humidity
19890;BME280;10107;51.198;6.824;2022-07-26T00:03:58;-21846.38;;;20.33;58.09
19890;BME280;10107;51.198;6.824;2022-07-26T00:08:00;-21842.59;;;20.18;58.69
19890;BME280;10107;51.198;6.824;2022-07-26T00:12:11;-21841.56;;;20.14;58.90
19890;BME280;10107;51.198;6.824;2022-07-26T00:16:13;-21839.72;;;20.07;59.42
19890;BME280;10107;51.198;6.824;2022-07-26T00:20:16;-21837.63;;;19.98;59.79
19890;BME280;10107;51.198;6.824;2022-07-26T00:24:18;-21835.81;;;19.91;60.24
19890;BME280;10107;51.198;6.824;2022-07-26T00:28:20;-21833.22;;;19.81;60.64
19890;BME280;10107;51.198;6.824;2022-07-26T00:32:22;-21831.00;;;19.72;61.36
19890;BME280;10107;51.198;6.824;2022-07-26T00:36:26;-21829.44;;;19.66;61.81
19890;BME280;10107;51.198;6.824;2022-07-26T00:40:29;-21825.78;;;19.52;62.20
19890;BME280;10107;51.198;6.824;2022-07-26T00:44:38;-21824.19;;;19.46;62.79
19890;BME280;10107;51.198;6.824;2022-07-26T00:48:40;-21822.25;;;19.38;63.19
19890;BME280;10107;51.198;6.824;2022-07-26T00:52:43;-21820.16;;;19.30;63.64
19890;BME280;10107;51.198;6.824;2022-07-26T00:56:45;-21818.06;;;19.22;64.07
19890;BME280;10107;51.198;6.824;2022-07-26T01:00:48;-21816.38;;;19.15;64.12
19890;BME280;10107;51.198;6.824;2022-07-26T01:04:49;-21815.06;;;19.10;64.57
19890;BME280;10107;51.198;6.824;2022-07-26T01:08:55;-21812.47;;;18.99;65.23
19890;BME280;10107;51.198;6.824;2022-07-26T01:12:57;-21811.41;;;18.95;65.80
19890;BME280;10107;51.198;6.824;2022-07-26T01:16:59;-21811.94;;;18.97;65.67
19890;BME280;10107;51.198;6.824;2022-07-26T01:21:02;-21813.38;;;19.03;65.57
19890;BME280;10107;51.198;6.824;2022-07-26T01:25:06;-21814.28;;;19.07;65.40
19890;BME280;10107;51.198;6.824;2022-07-26T01:29:09;-21814.94;;;19.09;65.66
19890;BME280;10107;51.198;6.824;2022-07-26T01:33:11;-21817.03;;;19.17;65.40
19890;BME280;10107;51.198;6.824;2022-07-26T01:37:12;-21818.47;;;19.23;65.64
19890;BME280;10107;51.198;6.824;2022-07-26T01:41:16;-21818.59;;;19.24;65.48
19890;BME280;10107;51.198;6.824;2022-07-26T01:45:17;-21818.97;;;19.25;65.36
19890;BME280;10107;51.198;6.824;2022-07-26T01:49:19;-21818.59;;;19.24;65.45
19890;BME280;10107;51.198;6.824;2022-07-26T01:53:21;-21819.38;;;19.27;65.62
19890;BME280;10107;51.198;6.824;2022-07-26T01:57:24;-21820.03;;;19.29;65.47
19890;BME280;10107;51.198;6.824;2022-07-26T02:01:26;-21820.41;;;19.31;65.97
19890;BME280;10107;51.198;6.824;2022-07-26T02:05:28;-21821.34;;;19.34;65.56
19890;BME280;10107;51.198;6.824;2022-07-26T02:09:30;-21817.81;;;19.21;66.28
19890;BME280;10107;51.198;6.824;2022-07-26T02:13:37;-21815.84;;;19.13;66.44
19890;BME280;10107;51.198;6.824;2022-07-26T02:17:39;-21814.69;;;19.08;66.67
19890;BME280;10107;51.198;6.824;2022-07-26T02:21:57;-21814.03;;;19.06;67.01
19890;BME280;10107;51.198;6.824;2022-07-26T02:26:00;-21812.97;;;19.02;67.58
19890;BME280;10107;51.198;6.824;2022-07-26T02:30:04;-21811.81;;;18.97;67.76
19890;BME280;10107;51.198;6.824;2022-07-26T02:34:05;-21811.03;;;18.94;67.86
19890;BME280;10107;51.198;6.824;2022-07-26T02:38:09;-21809.97;;;18.90;67.80
19890;BME280;10107;51.198;6.824;2022-07-26T02:42:11;-21808.94;;;18.86;68.35
19890;BME280;10107;51.198;6.824;2022-07-26T02:46:14;-21807.63;;;18.80;68.91
19890;BME280;10107;51.198;6.824;2022-07-26T02:50:17;-21808.53;;;18.84;68.85
19890;BME280;10107;51.198;6.824;2022-07-26T02:54:19;-21809.84;;;18.89;68.99
19890;BME280;10107;51.198;6.824;2022-07-26T02:58:21;-21809.19;;;18.87;69.32
19890;BME280;10107;51.198;6.824;2022-07-26T03:02:25;-21806.56;;;18.76;69.69
19890;BME280;10107;51.198;6.824;2022-07-26T03:06:27;-21805.91;;;18.74;69.48
19890;BME280;10107;51.198;6.824;2022-07-26T03:10:29;-21805.00;;;18.70;70.22
19890;BME280;10107;51.198;6.824;2022-07-26T03:14:31;-21805.41;;;18.72;70.30
19890;BME280;10107;51.198;6.824;2022-07-26T03:18:34;-21805.91;;;18.74;70.22
19890;BME280;10107;51.198;6.824;2022-07-26T03:22:36;-21804.09;;;18.67;70.90
19890;BME280;10107;51.198;6.824;2022-07-26T03:26:38;-21802.78;;;18.62;70.99
19890;BME280;10107;51.198;6.824;2022-07-26T03:30:40;-21802.25;;;18.59;71.15
19890;BME280;10107;51.198;6.824;2022-07-26T03:34:43;-21802.78;;;18.62;71.13
19890;BME280;10107;51.198;6.824;2022-07-26T03:38:45;-21802.00;;;18.58;71.68
19890;BME280;10107;51.198;6.824;2022-07-26T03:42:47;-21800.44;;;18.52;71.96
19890;BME280;10107;51.198;6.824;2022-07-26T03:46:49;-21799.91;;;18.50;72.28
19890;BME280;10107;51.198;6.824;2022-07-26T03:50:52;-21800.81;;;18.54;72.11
19890;BME280;10107;51.198;6.824;2022-07-26T03:54:54;-21801.09;;;18.55;72.34
19890;BME280;10107;51.198;6.824;2022-07-26T03:58:57;-21801.34;;;18.56;72.38
19890;BME280;10107;51.198;6.824;2022-07-26T04:02:59;-21801.09;;;18.55;72.54
19890;BME280;10107;51.198;6.824;2022-07-26T04:07:03;-21798.06;;;18.43;73.18
19890;BME280;10107;51.198;6.824;2022-07-26T04:11:05;-21797.44;;;18.40;73.23
19890;BME280;10107;51.198;6.824;2022-07-26T04:15:08;-21797.94;;;18.43;73.61
19890;BME280;10107;51.198;6.824;2022-07-26T04:19:10;-21797.28;;;18.40;73.82
19890;BME280;10107;51.198;6.824;2022-07-26T04:23:13;-21797.28;;;18.40;73.54
19890;BME280;10107;51.198;6.824;2022-07-26T04:27:15;-21798.06;;;18.43;73.84
19890;BME280;10107;51.198;6.824;2022-07-26T04:31:17;-21798.59;;;18.45;74.06
19890;BME280;10107;51.198;6.824;2022-07-26T04:35:18;-21799.66;;;18.49;74.05
19890;BME280;10107;51.198;6.824;2022-07-26T04:39:22;-21799.78;;;18.50;74.75
19890;BME280;10107;51.198;6.824;2022-07-26T04:43:24;-21797.81;;;18.42;74.96
19890;BME280;10107;51.198;6.824;2022-07-26T04:47:27;-21797.69;;;18.42;75.71
19890;BME280;10107;51.198;6.824;2022-07-26T04:51:28;-21797.03;;;18.39;75.63
19890;BME280;10107;51.198;6.824;2022-07-26T04:55:34;-21796.50;;;18.37;75.80
19890;BME280;10107;51.198;6.824;2022-07-26T04:59:36;-21796.63;;;18.37;75.60
19890;BME280;10107;51.198;6.824;2022-07-26T05:03:38;-21797.56;;;18.41;75.85
19890;BME280;10107;51.198;6.824;2022-07-26T05:07:40;-21799.78;;;18.50;75.63
19890;BME280;10107;51.198;6.824;2022-07-26T05:11:44;-21803.97;;;18.66;75.13
19890;BME280;10107;51.198;6.824;2022-07-26T05:15:46;-21807.88;;;18.82;74.51
19890;BME280;10107;51.198;6.824;2022-07-26T05:19:48;-21810.75;;;18.93;74.15
19890;BME280;10107;51.198;6.824;2022-07-26T05:23:50;-21812.19;;;18.98;73.93
19890;BME280;10107;51.198;6.824;2022-07-26T05:27:53;-21814.94;;;19.09;73.54
19890;BME280;10107;51.198;6.824;2022-07-26T05:31:56;-21819.13;;;19.26;73.41
19890;BME280;10107;51.198;6.824;2022-07-26T05:35:58;-21823.03;;;19.41;72.91
19890;BME280;10107;51.198;6.824;2022-07-26T05:40:00;-21826.44;;;19.54;72.08
19890;BME280;10107;51.198;6.824;2022-07-26T05:44:04;-21827.19;;;19.57;72.00
19890;BME280;10107;51.198;6.824;2022-07-26T05:48:06;-21828.13;;;19.61;71.86
19890;BME280;10107;51.198;6.824;2022-07-26T05:52:08;-21828.00;;;19.61;71.84
19890;BME280;10107;51.198;6.824;2022-07-26T05:56:10;-21828.78;;;19.64;71.90
19890;BME280;10107;51.198;6.824;2022-07-26T06:00:16;-21831.13;;;19.73;72.03
19890;BME280;10107;51.198;6.824;2022-07-26T06:04:18;-21835.03;;;19.88;72.06
19890;BME280;10107;51.198;6.824;2022-07-26T06:08:20;-21840.63;;;20.10;70.65
19890;BME280;10107;51.198;6.824;2022-07-26T06:12:22;-21843.50;;;20.22;70.78
19890;BME280;10107;51.198;6.824;2022-07-26T06:16:25;-21847.53;;;20.37;69.69
19890;BME280;10107;51.198;6.824;2022-07-26T06:20:27;-21850.03;;;20.47;69.22
19890;BME280;10107;51.198;6.824;2022-07-26T06:24:29;-21849.09;;;20.44;69.42
19890;BME280;10107;51.198;6.824;2022-07-26T06:28:31;-21851.97;;;20.55;68.95
19890;BME280;10107;51.198;6.824;2022-07-26T06:32:34;-21854.84;;;20.66;68.47
19890;BME280;10107;51.198;6.824;2022-07-26T06:36:36;-21851.44;;;20.53;68.89
19890;BME280;10107;51.198;6.824;2022-07-26T06:40:38;-21853.03;;;20.59;69.00
19890;BME280;10107;51.198;6.824;2022-07-26T06:44:40;-21853.66;;;20.62;68.41
19890;BME280;10107;51.198;6.824;2022-07-26T06:48:43;-21850.94;;;20.51;69.33
19890;BME280;10107;51.198;6.824;2022-07-26T06:52:45;-21853.81;;;20.62;68.62
19890;BME280;10107;51.198;6.824;2022-07-26T06:56:47;-21859.13;;;20.83;68.18
19890;BME280;10107;51.198;6.824;2022-07-26T07:00:49;-21865.50;;;21.08;67.23
19890;BME280;10107;51.198;6.824;2022-07-26T07:04:52;-21868.63;;;21.21;67.06
19890;BME280;10107;51.198;6.824;2022-07-26T07:08:54;-21871.38;;;21.31;66.68
19890;BME280;10107;51.198;6.824;2022-07-26T07:12:56;-21876.06;;;21.50;65.87
19890;BME280;10107;51.198;6.824;2022-07-26T07:16:58;-21890.59;;;22.07;63.95
19890;BME280;10107;51.198;6.824;2022-07-26T07:21:02;-21896.84;;;22.32;62.87
19890;BME280;10107;51.198;6.824;2022-07-26T07:25:05;-21893.84;;;22.20;63.28
19890;BME280;10107;51.198;6.824;2022-07-26T07:29:07;-21903.59;;;22.59;62.26
19890;BME280;10107;51.198;6.824;2022-07-26T07:33:11;-21919.81;;;23.23;60.75
19890;BME280;10107;51.198;6.824;2022-07-26T07:37:16;-21920.84;;;23.27;59.61
19890;BME280;10107;51.198;6.824;2022-07-26T07:41:19;-21913.72;;;22.99;60.55
19890;BME280;10107;51.198;6.824;2022-07-26T07:45:20;-21909.44;;;22.82;61.20
19890;BME280;10107;51.198;6.824;2022-07-26T07:49:22;-21907.88;;;22.76;61.51
19890;BME280;10107;51.198;6.824;2022-07-26T07:53:25;-21902.28;;;22.53;62.13
19890;BME280;10107;51.198;6.824;2022-07-26T07:57:27;-21921.34;;;23.29;60.02
19890;BME280;10107;51.198;6.824;2022-07-26T08:01:29;-21932.63;;;23.73;58.31
19890;BME280;10107;51.198;6.824;2022-07-26T08:05:31;-21927.44;;;23.53;58.88
19890;BME280;10107;51.198;6.824;2022-07-26T08:09:34;-21928.47;;;23.57;58.68
19890;BME280;10107;51.198;6.824;2022-07-26T08:13:36;-21964.69;;;25.01;54.06
19890;BME280;10107;51.198;6.824;2022-07-26T08:17:40;-22000.94;;;26.45;50.71
19890;BME280;10107;51.198;6.824;2022-07-26T08:21:42;-22025.00;;;27.41;47.53
19890;BME280;10107;51.198;6.824;2022-07-26T08:25:47;-22017.56;;;27.11;47.77
19890;BME280;10107;51.198;6.824;2022-07-26T08:29:48;-21994.91;;;26.21;49.72
19890;BME280;10107;51.198;6.824;2022-07-26T08:33:50;-21972.59;;;25.32;52.61
19890;BME280;10107;51.198;6.824;2022-07-26T08:37:53;-21969.47;;;25.20;52.50
19890;BME280;10107;51.198;6.824;2022-07-26T08:41:56;-21979.03;;;25.58;52.09
19890;BME280;10107;51.198;6.824;2022-07-26T08:45:59;-21997.84;;;26.33;50.88
19890;BME280;10107;51.198;6.824;2022-07-26T08:50:02;-22012.91;;;26.93;47.93
19890;BME280;10107;51.198;6.824;2022-07-26T08:54:04;-22026.03;;;27.45;45.48
19890;BME280;10107;51.198;6.824;2022-07-26T08:58:07;-22043.63;;;28.15;44.53
19890;BME280;10107;51.198;6.824;2022-07-26T09:02:11;-22052.38;;;28.50;42.51
19890;BME280;10107;51.198;6.824;2022-07-26T09:06:15;-22071.97;;;29.29;41.18
19890;BME280;10107;51.198;6.824;2022-07-26T09:10:17;-22101.91;;;30.49;38.31
19890;BME280;10107;51.198;6.824;2022-07-26T09:14:21;-22169.19;;;33.20;34.47
19890;BME280;10107;51.198;6.824;2022-07-26T09:18:27;-22219.50;;;35.23;29.86
19890;BME280;10107;51.198;6.824;2022-07-26T09:22:29;-22193.94;;;34.20;30.71
19890;BME280;10107;51.198;6.824;2022-07-26T09:26:31;-22130.63;;;31.64;34.07
19890;BME280;10107;51.198;6.824;2022-07-26T09:30:35;-22118.78;;;31.16;35.18
19890;BME280;10107;51.198;6.824;2022-07-26T09:34:37;-22196.59;;;34.30;31.08
19890;BME280;10107;51.198;6.824;2022-07-26T09:38:40;-22154.06;;;32.59;31.89
19890;BME280;10107;51.198;6.824;2022-07-26T09:42:53;-22126.03;;;31.46;34.44
19890;BME280;10107;51.198;6.824;2022-07-26T09:46:57;-22122.09;;;31.30;35.31
19890;BME280;10107;51.198;6.824;2022-07-26T09:50:59;-22088.50;;;29.95;36.73
19890;BME280;10107;51.198;6.824;2022-07-26T09:55:03;-22046.84;;;28.28;39.42
19890;BME280;10107;51.198;6.824;2022-07-26T09:59:06;-22017.56;;;27.11;42.48
19890;BME280;10107;51.198;6.824;2022-07-26T10:03:10;-21999.66;;;26.40;44.86
19890;BME280;10107;51.198;6.824;2022-07-26T10:07:12;-21986.25;;;25.86;46.56
19890;BME280;10107;51.198;6.824;2022-07-26T10:11:14;-21967.28;;;25.11;47.45
19890;BME280;10107;51.198;6.824;2022-07-26T10:15:36;-21956.81;;;24.69;47.61
19890;BME280;10107;51.198;6.824;2022-07-26T10:19:40;-21950.88;;;24.46;48.01
19890;BME280;10107;51.198;6.824;2022-07-26T10:23:43;-21957.06;;;24.70;47.85
19890;BME280;10107;51.198;6.824;2022-07-26T10:27:46;-21971.03;;;25.26;47.11
19890;BME280;10107;51.198;6.824;2022-07-26T10:40:35;-22109.69;;;30.80;35.42
19890;BME280;10107;51.198;6.824;2022-07-26T10:44:38;-22177.69;;;33.54;30.52
19890;BME280;10107;51.198;6.824;2022-07-26T10:48:54;-22209.75;;;34.84;29.07
19890;BME280;10107;51.198;6.824;2022-07-26T10:52:57;-22213.81;;;35.00;28.80
19890;BME280;10107;51.198;6.824;2022-07-26T10:57:00;-22193.44;;;34.18;28.84
19890;BME280;10107;51.198;6.824;2022-07-26T11:01:03;-22158.63;;;32.77;30.81
19890;BME280;10107;51.198;6.824;2022-07-26T11:05:06;-22189.75;;;34.03;29.28
19890;BME280;10107;51.198;6.824;2022-07-26T11:09:13;-22140.19;;;32.03;31.56
19890;BME280;10107;51.198;6.824;2022-07-26T11:13:19;-22068.41;;;29.14;38.26
19890;BME280;10107;51.198;6.824;2022-07-26T11:17:23;-22026.56;;;27.47;42.37
19890;BME280;10107;51.198;6.824;2022-07-26T11:21:25;-22017.69;;;27.12;43.33
19890;BME280;10107;51.198;6.824;2022-07-26T11:25:27;-22052.38;;;28.50;39.83
19890;BME280;10107;51.198;6.824;2022-07-26T11:29:33;-22062.25;;;28.90;40.01
19890;BME280;10107;51.198;6.824;2022-07-26T11:33:35;-22034.66;;;27.79;41.61
19890;BME280;10107;51.198;6.824;2022-07-26T11:37:37;-22017.69;;;27.12;44.97
19890;BME280;10107;51.198;6.824;2022-07-26T11:41:40;-22039.16;;;27.97;41.81
19890;BME280;10107;51.198;6.824;2022-07-26T11:45:50;-22050.56;;;28.43;40.74
19890;BME280;10107;51.198;6.824;2022-07-26T11:49:52;-22093.88;;;30.16;38.47
19890;BME280;10107;51.198;6.824;2022-07-26T11:53:55;-22141.84;;;32.09;35.10
19890;BME280;10107;51.198;6.824;2022-07-26T11:58:03;-22173.50;;;33.37;31.99
19890;BME280;10107;51.198;6.824;2022-07-26T12:02:08;-22140.06;;;32.02;33.34
19890;BME280;10107;51.198;6.824;2022-07-26T12:06:12;-22152.91;;;32.54;32.46
19890;BME280;10107;51.198;6.824;2022-07-26T12:10:15;-22127.69;;;31.52;32.37
19890;BME280;10107;51.198;6.824;2022-07-26T12:14:23;-22164.88;;;33.02;32.25
19890;BME280;10107;51.198;6.824;2022-07-26T12:18:28;-22181.38;;;33.69;30.74
19890;BME280;10107;51.198;6.824;2022-07-26T12:22:30;-22196.22;;;34.29;29.48
19890;BME280;10107;51.198;6.824;2022-07-26T12:26:32;-22186.94;;;33.91;30.72
19890;BME280;10107;51.198;6.824;2022-07-26T12:30:34;-22148.84;;;32.38;31.45
19890;BME280;10107;51.198;6.824;2022-07-26T12:34:40;-22124.00;;;31.37;33.04
19890;BME280;10107;51.198;6.824;2022-07-26T12:38:46;-22080.31;;;29.62;36.27
19890;BME280;10107;51.198;6.824;2022-07-26T12:42:54;-22056.47;;;28.67;39.20
19890;BME280;10107;51.198;6.824;2022-07-26T12:46:59;-22031.94;;;27.69;39.67
19890;BME280;10107;51.198;6.824;2022-07-26T12:51:03;-22025.53;;;27.43;41.51
19890;BME280;10107;51.198;6.824;2022-07-26T12:55:07;-22031.94;;;27.69;40.12
19890;BME280;10107;51.198;6.824;2022-07-26T12:59:09;-22038.00;;;27.93;40.62
19890;BME280;10107;51.198;6.824;2022-07-26T13:03:13;-22048.78;;;28.36;39.43
19890;BME280;10107;51.198;6.824;2022-07-26T13:07:17;-22052.75;;;28.52;38.59
19890;BME280;10107;51.198;6.824;2022-07-26T13:11:19;-22042.47;;;28.11;39.58
19890;BME280;10107;51.198;6.824;2022-07-26T13:15:21;-22032.22;;;27.70;40.29
19890;BME280;10107;51.198;6.824;2022-07-26T13:19:23;-22026.44;;;27.47;41.28
19890;BME280;10107;51.198;6.824;2022-07-26T13:23:26;-22036.97;;;27.89;39.74
19890;BME280;10107;51.198;6.824;2022-07-26T13:27:28;-22023.84;;;27.36;40.57
19890;BME280;10107;51.198;6.824;2022-07-26T13:31:30;-22000.56;;;26.43;42.20
19890;BME280;10107;51.198;6.824;2022-07-26T13:35:32;-21983.41;;;25.75;43.88
19890;BME280;10107;51.198;6.824;2022-07-26T13:39:36;-21974.00;;;25.38;43.70
19890;BME280;10107;51.198;6.824;2022-07-26T13:43:38;-21971.94;;;25.29;44.50
19890;BME280;10107;51.198;6.824;2022-07-26T13:47:39;-21971.53;;;25.28;44.67
19890;BME280;10107;51.198;6.824;2022-07-26T13:51:41;-21973.22;;;25.35;44.25
19890;BME280;10107;51.198;6.824;2022-07-26T13:56:00;-21961.09;;;24.86;45.74
19890;BME280;10107;51.198;6.824;2022-07-26T14:00:06;-21944.28;;;24.20;48.91
19890;BME280;10107;51.198;6.824;2022-07-26T14:04:09;-21929.00;;;23.59;51.55
19890;BME280;10107;51.198;6.824;2022-07-26T14:08:11;-21920.06;;;23.24;53.80
19890;BME280;10107;51.198;6.824;2022-07-26T14:12:14;-21912.03;;;22.92;53.37
19890;BME280;10107;51.198;6.824;2022-07-26T14:16:16;-21908.78;;;22.79;53.56
19890;BME280;10107;51.198;6.824;2022-07-26T14:20:18;-21912.41;;;22.93;53.97
19890;BME280;10107;51.198;6.824;2022-07-26T14:24:20;-21924.84;;;23.43;52.37
19890;BME280;10107;51.198;6.824;2022-07-26T14:28:24;-21947.50;;;24.33;49.47
19890;BME280;10107;51.198;6.824;2022-07-26T14:32:26;-21968.84;;;25.17;47.44
19890;BME280;10107;51.198;6.824;2022-07-26T14:36:28;-21988.31;;;25.95;46.42
19890;BME280;10107;51.198;6.824;2022-07-26T14:40:30;-21999.66;;;26.40;44.93
19890;BME280;10107;51.198;6.824;2022-07-26T14:44:33;-22002.88;;;26.53;45.85
19890;BME280;10107;51.198;6.824;2022-07-26T14:48:35;-21999.16;;;26.38;45.04
19890;BME280;10107;51.198;6.824;2022-07-26T14:52:37;-22005.72;;;26.64;44.65
19890;BME280;10107;51.198;6.824;2022-07-26T14:56:40;-22002.88;;;26.53;44.15
19890;BME280;10107;51.198;6.824;2022-07-26T15:00:43;-21982.38;;;25.71;45.77
19890;BME280;10107;51.198;6.824;2022-07-26T15:04:45;-21982.13;;;25.70;45.18
19890;BME280;10107;51.198;6.824;2022-07-26T15:08:47;-21976.19;;;25.46;44.87
19890;BME280;10107;51.198;6.824;2022-07-26T15:12:48;-21981.09;;;25.66;44.74
19890;BME280;10107;51.198;6.824;2022-07-26T15:16:52;-21985.75;;;25.84;44.73
19890;BME280;10107;51.198;6.824;2022-07-26T15:20:53;-21989.09;;;25.98;43.44
19890;BME280;10107;51.198;6.824;2022-07-26T15:24:57;-21990.00;;;26.01;43.77
19890;BME280;10107;51.198;6.824;2022-07-26T15:28:58;-21984.06;;;25.78;44.38
19890;BME280;10107;51.198;6.824;2022-07-26T15:33:02;-21984.19;;;25.78;45.40
19890;BME280;10107;51.198;6.824;2022-07-26T15:37:04;-21984.44;;;25.79;44.85
19890;BME280;10107;51.198;6.824;2022-07-26T15:41:05;-21984.19;;;25.78;44.47
19890;BME280;10107;51.198;6.824;2022-07-26T15:45:09;-21974.13;;;25.38;45.43
19890;BME280;10107;51.198;6.824;2022-07-26T15:49:13;-21968.69;;;25.17;46.01
19890;BME280;10107;51.198;6.824;2022-07-26T15:53:16;-21960.81;;;24.85;45.73
19890;BME280;10107;51.198;6.824;2022-07-26T15:57:18;-21961.09;;;24.86;45.50
19890;BME280;10107;51.198;6.824;2022-07-26T16:01:20;-21958.50;;;24.76;45.23
19890;BME280;10107;51.198;6.824;2022-07-26T16:05:23;-21956.81;;;24.69;45.91
19890;BME280;10107;51.198;6.824;2022-07-26T16:09:25;-21960.81;;;24.85;46.06
19890;BME280;10107;51.198;6.824;2022-07-26T16:13:27;-21964.06;;;24.98;45.36
19890;BME280;10107;51.198;6.824;2022-07-26T16:17:29;-21958.13;;;24.75;45.83
19890;BME280;10107;51.198;6.824;2022-07-26T16:21:32;-21945.44;;;24.24;46.91
19890;BME280;10107;51.198;6.824;2022-07-26T16:25:34;-21928.34;;;23.57;48.08
19890;BME280;10107;51.198;6.824;2022-07-26T16:29:36;-21920.44;;;23.25;48.95
19890;BME280;10107;51.198;6.824;2022-07-26T16:33:37;-21923.03;;;23.36;48.36
19890;BME280;10107;51.198;6.824;2022-07-26T16:37:41;-21920.06;;;23.24;48.62
19890;BME280;10107;51.198;6.824;2022-07-26T16:41:42;-21924.22;;;23.40;48.84
19890;BME280;10107;51.198;6.824;2022-07-26T16:45:44;-21927.56;;;23.53;48.33
19890;BME280;10107;51.198;6.824;2022-07-26T16:49:46;-21922.66;;;23.34;48.16
19890;BME280;10107;51.198;6.824;2022-07-26T16:53:49;-21919.81;;;23.23;49.10
19890;BME280;10107;51.198;6.824;2022-07-26T16:57:53;-21917.47;;;23.13;49.52
19890;BME280;10107;51.198;6.824;2022-07-26T17:01:58;-21912.66;;;22.94;50.13
19890;BME280;10107;51.198;6.824;2022-07-26T17:06:01;-21905.28;;;22.65;51.20
19890;BME280;10107;51.198;6.824;2022-07-26T17:10:08;-21903.59;;;22.59;50.85
19890;BME280;10107;51.198;6.824;2022-07-26T17:14:10;-21909.69;;;22.83;50.69
19890;BME280;10107;51.198;6.824;2022-07-26T17:18:15;-21909.03;;;22.80;49.28
19890;BME280;10107;51.198;6.824;2022-07-26T17:22:17;-21906.44;;;22.70;48.73
19890;BME280;10107;51.198;6.824;2022-07-26T17:26:21;-21899.81;;;22.44;49.19
19890;BME280;10107;51.198;6.824;2022-07-26T17:30:23;-21896.84;;;22.32;50.10
19890;BME280;10107;51.198;6.824;2022-07-26T17:34:27;-21893.84;;;22.20;50.57
19890;BME280;10107;51.198;6.824;2022-07-26T17:38:30;-21893.72;;;22.20;50.95
19890;BME280;10107;51.198;6.824;2022-07-26T17:42:35;-21892.56;;;22.15;51.01
19890;BME280;10107;51.198;6.824;2022-07-26T17:46:37;-21892.28;;;22.14;51.76
19890;BME280;10107;51.198;6.824;2022-07-26T17:50:39;-21892.81;;;22.16;52.86
19890;BME280;10107;51.198;6.824;2022-07-26T17:54:41;-21892.28;;;22.14;53.56
19890;BME280;10107;51.198;6.824;2022-07-26T17:58:44;-21892.03;;;22.13;54.13
19890;BME280;10107;51.198;6.824;2022-07-26T18:02:46;-21888.91;;;22.01;54.90
19890;BME280;10107;51.198;6.824;2022-07-26T18:06:49;-21884.50;;;21.83;56.19
19890;BME280;10107;51.198;6.824;2022-07-26T18:10:52;-21883.97;;;21.81;56.43
19890;BME280;10107;51.198;6.824;2022-07-26T18:14:56;-21882.56;;;21.75;57.40
19890;BME280;10107;51.198;6.824;2022-07-26T18:18:58;-21878.53;;;21.60;57.65
19890;BME280;10107;51.198;6.824;2022-07-26T18:23:00;-21878.25;;;21.59;58.25
19890;BME280;10107;51.198;6.824;2022-07-26T18:27:03;-21874.22;;;21.43;58.38
19890;BME280;10107;51.198;6.824;2022-07-26T18:31:06;-21868.38;;;21.20;59.31
19890;BME280;10107;51.198;6.824;2022-07-26T18:35:08;-21865.13;;;21.07;58.77
19890;BME280;10107;51.198;6.824;2022-07-26T18:39:11;-21859.78;;;20.86;59.24
19890;BME280;10107;51.198;6.824;2022-07-26T18:43:12;-21854.59;;;20.65;59.72
19890;BME280;10107;51.198;6.824;2022-07-26T18:47:16;-21853.66;;;20.62;60.81
19890;BME280;10107;51.198;6.824;2022-07-26T18:51:18;-21848.06;;;20.40;60.72
19890;BME280;10107;51.198;6.824;2022-07-26T18:55:21;-21844.28;;;20.25;62.04
19890;BME280;10107;51.198;6.824;2022-07-26T18:59:24;-21840.50;;;20.10;62.65
19890;BME280;10107;51.198;6.824;2022-07-26T19:03:27;-21838.03;;;20.00;62.62
19890;BME280;10107;51.198;6.824;2022-07-26T19:07:34;-21834.50;;;19.86;61.29
19890;BME280;10107;51.198;6.824;2022-07-26T19:11:37;-21831.25;;;19.73;59.95
19890;BME280;10107;51.198;6.824;2022-07-26T19:15:38;-21831.91;;;19.76;61.00
19890;BME280;10107;51.198;6.824;2022-07-26T19:19:42;-21831.00;;;19.72;60.16
19890;BME280;10107;51.198;6.824;2022-07-26T19:23:43;-21826.16;;;19.53;59.99
19890;BME280;10107;51.198;6.824;2022-07-26T19:27:45;-21823.03;;;19.41;60.42
19890;BME280;10107;51.198;6.824;2022-07-26T19:31:47;-21822.25;;;19.38;61.56
19890;BME280;10107;51.198;6.824;2022-07-26T19:35:50;-21821.59;;;19.35;61.69
19890;BME280;10107;51.198;6.824;2022-07-26T19:39:53;-21820.03;;;19.29;62.27
19890;BME280;10107;51.198;6.824;2022-07-26T19:43:59;-21819.13;;;19.26;62.70
19890;BME280;10107;51.198;6.824;2022-07-26T19:48:01;-21817.03;;;19.17;63.36
19890;BME280;10107;51.198;6.824;2022-07-26T19:52:05;-21815.47;;;19.11;63.97
19890;BME280;10107;51.198;6.824;2022-07-26T19:56:06;-21814.03;;;19.06;64.58
19890;BME280;10107;51.198;6.824;2022-07-26T20:00:09;-21814.69;;;19.08;64.80
19890;BME280;10107;51.198;6.824;2022-07-26T20:04:11;-21813.91;;;19.05;65.77
19890;BME280;10107;51.198;6.824;2022-07-26T20:08:15;-21814.03;;;19.06;65.75
19890;BME280;10107;51.198;6.824;2022-07-26T20:12:18;-21813.75;;;19.05;65.38
19890;BME280;10107;51.198;6.824;2022-07-26T20:16:20;-21811.94;;;18.97;64.77
19890;BME280;10107;51.198;6.824;2022-07-26T20:20:22;-21810.88;;;18.93;63.51
19890;BME280;10107;51.198;6.824;2022-07-26T20:24:26;-21812.47;;;18.99;63.42
19890;BME280;10107;51.198;6.824;2022-07-26T20:28:28;-21812.47;;;18.99;62.90
19890;BME280;10107;51.198;6.824;2022-07-26T20:32:30;-21810.25;;;18.91;61.98
19890;BME280;10107;51.198;6.824;2022-07-26T20:36:31;-21809.72;;;18.89;62.17
19890;BME280;10107;51.198;6.824;2022-07-26T20:40:35;-21809.72;;;18.89;61.49
19890;BME280;10107;51.198;6.824;2022-07-26T20:44:37;-21808.81;;;18.85;61.60
19890;BME280;10107;51.198;6.824;2022-07-26T20:48:39;-21808.94;;;18.86;60.29
19890;BME280;10107;51.198;6.824;2022-07-26T20:52:40;-21808.81;;;18.85;60.42
19890;BME280;10107;51.198;6.824;2022-07-26T20:56:46;-21808.94;;;18.86;59.46
19890;BME280;10107;51.198;6.824;2022-07-26T21:00:48;-21806.31;;;18.75;58.23
19890;BME280;10107;51.198;6.824;2022-07-26T21:04:50;-21805.41;;;18.72;58.05
19890;BME280;10107;51.198;6.824;2022-07-26T21:08:52;-21805.53;;;18.72;58.21
19890;BME280;10107;51.198;6.824;2022-07-26T21:12:56;-21803.31;;;18.64;56.83
19890;BME280;10107;51.198;6.824;2022-07-26T21:16:59;-21801.88;;;18.58;57.38
19890;BME280;10107;51.198;6.824;2022-07-26T21:21:01;-21801.34;;;18.56;57.59